createdAt,value
2018-11-29T00:00:46.964Z,17.47
2018-11-29T00:05:50.895Z,16.93
2018-11-29T00:10:54.257Z,17.00
2018-11-29T00:15:57.349Z,16.03
2018-11-29T00:21:00.395Z,17.63
2018-11-29T00:26:04.290Z,16.63
2018-11-29T00:31:07.368Z,16.17
2018-11-29T00:36:10.847Z,16.27
2018-11-29T00:41:13.936Z,15.97
2018-11-29T00:46:17.655Z,14.50
2018-11-29T00:51:20.725Z,15.10
2018-11-29T00:56:23.800Z,15.90
2018-11-29T01:01:27.145Z,14.63
2018-11-29T01:06:30.599Z,13.13
2018-11-29T01:11:33.704Z,15.73
2018-11-29T01:16:36.921Z,16.93
2018-11-29T01:21:39.956Z,16.10
2018-11-29T01:26:43.055Z,14.83
2018-11-29T01:31:46.067Z,15.30
2018-11-29T01:36:49.123Z,17.47
2018-11-29T01:41:58.881Z,14.57
2018-11-29T01:47:01.892Z,14.33
2018-11-29T01:52:05.009Z,11.87
2018-11-29T01:57:08.025Z,15.77
2018-11-29T02:02:11.208Z,11.83
2018-11-29T02:07:14.245Z,14.43
2018-11-29T02:12:17.353Z,14.33
2018-11-29T02:17:20.398Z,14.37
2018-11-29T02:22:23.414Z,13.47
2018-11-29T02:27:26.521Z,15.60
2018-11-29T02:32:29.544Z,15.53
2018-11-29T02:37:32.621Z,14.13
2018-11-29T02:42:35.664Z,15.17
2018-11-29T02:47:38.802Z,15.73
2018-11-29T02:52:41.824Z,14.77
2018-11-29T02:57:44.869Z,13.13
2018-11-29T03:02:48.081Z,14.17
2018-11-29T03:07:51.173Z,13.30
2018-11-29T03:12:54.239Z,13.70
2018-11-29T03:17:57.352Z,16.23
2018-11-29T03:23:00.363Z,14.23
2018-11-29T03:28:03.400Z,13.00
2018-11-29T03:33:06.452Z,12.57
2018-11-29T03:38:09.482Z,13.20
2018-11-29T03:43:12.493Z,15.03
2018-11-29T03:48:15.535Z,14.67
2018-11-29T03:53:18.565Z,16.33
2018-11-29T03:58:21.681Z,15.60
2018-11-29T04:03:24.741Z,15.60
2018-11-29T04:08:27.768Z,14.40
2018-11-29T04:13:30.840Z,15.10
2018-11-29T04:18:33.995Z,15.13
2018-11-29T04:23:37.030Z,16.93
2018-11-29T04:28:40.092Z,16.60
2018-11-29T04:33:43.169Z,17.20
2018-11-29T04:38:46.228Z,18.43
2018-11-29T04:43:49.804Z,17.00
2018-11-29T04:48:53.057Z,16.93
2018-11-29T04:53:56.131Z,17.47
2018-11-29T04:58:59.251Z,16.23
2018-11-29T05:04:02.328Z,17.83
2018-11-29T05:09:08.147Z,18.73
2018-11-29T05:14:11.272Z,17.50
2018-11-29T05:19:14.301Z,18.27
2018-11-29T05:24:17.356Z,18.93
2018-11-29T05:29:20.401Z,17.93
2018-11-29T05:34:23.415Z,19.60
2018-11-29T05:39:26.491Z,15.37
2018-11-29T05:44:29.542Z,18.17
2018-11-29T05:49:32.592Z,18.83
2018-11-29T05:54:35.612Z,19.90
2018-11-29T05:59:38.719Z,19.00
2018-11-29T06:04:41.762Z,19.27
2018-11-29T06:09:44.940Z,14.63
2018-11-29T06:14:48.047Z,13.30
2018-11-29T06:19:51.592Z,20.40
2018-11-29T06:24:55.467Z,19.07
2018-11-29T06:30:00.669Z,20.73
2018-11-29T06:35:05.072Z,21.00
2018-11-29T06:40:13.140Z,21.53
2018-11-29T06:45:18.673Z,19.97
2018-11-29T06:50:22.584Z,17.30
2018-11-29T06:55:26.644Z,19.33
2018-11-29T07:00:32.608Z,20.20
2018-11-29T07:05:37.128Z,21.13
2018-11-29T07:10:42.591Z,20.60
2018-11-29T07:15:47.832Z,18.77
2018-11-29T07:21:03.250Z,22.03
2018-11-29T07:26:06.612Z,19.17
2018-11-29T07:31:09.669Z,19.00
2018-11-29T07:36:12.857Z,20.73
2018-11-29T07:41:15.897Z,19.53
2018-11-29T07:46:18.911Z,19.00
2018-11-29T07:51:22.019Z,16.80
2018-11-29T07:56:25.028Z,19.03
2018-11-29T08:01:28.079Z,19.80
2018-11-29T08:06:31.133Z,20.30
2018-11-29T08:11:34.299Z,19.73
2018-11-29T08:16:37.330Z,19.03
2018-11-29T08:21:40.431Z,17.83
2018-11-29T08:26:43.441Z,19.20
2018-11-29T08:31:46.500Z,19.63
2018-11-29T08:36:49.515Z,19.33
2018-11-29T08:41:52.611Z,21.10
2018-11-29T08:46:58.057Z,21.57
2018-11-29T08:52:01.870Z,18.57
2018-11-29T08:57:04.923Z,20.23
2018-11-29T09:02:08.021Z,20.87
2018-11-29T09:07:11.827Z,20.50
2018-11-29T09:12:14.869Z,20.77
2018-11-29T09:17:17.872Z,19.60
2018-11-29T09:22:20.919Z,19.07
2018-11-29T09:27:23.952Z,20.10
2018-11-29T09:32:26.947Z,19.93
2018-11-29T09:37:29.961Z,20.03
2018-11-29T09:42:32.983Z,18.13
2018-11-29T09:47:36.233Z,21.70
2018-11-29T09:52:39.828Z,18.87
2018-11-29T09:57:43.292Z,19.23
2018-11-29T10:02:51.385Z,17.23
2018-11-29T10:07:54.486Z,16.90
2018-11-29T10:12:57.493Z,17.77
2018-11-29T10:18:00.619Z,20.30
2018-11-29T10:23:03.943Z,19.90
2018-11-29T10:28:10.496Z,17.77
2018-11-29T10:33:13.503Z,17.30
2018-11-29T10:38:16.547Z,18.90
2018-11-29T10:43:19.707Z,17.87
2018-11-29T10:48:23.684Z,17.70
2018-11-29T10:53:38.210Z,18.10
2018-11-29T10:58:46.061Z,17.47
2018-11-29T11:03:49.431Z,17.93
2018-11-29T11:08:52.468Z,18.77
2018-11-29T11:13:55.516Z,19.73
2018-11-29T11:18:58.584Z,18.90
2018-11-29T11:24:01.611Z,15.60
2018-11-29T11:29:08.890Z,17.30
2018-11-29T11:34:12.065Z,16.73
2018-11-29T11:39:15.099Z,18.60
2018-11-29T11:44:18.178Z,19.60
2018-11-29T11:49:21.202Z,17.10
2018-11-29T11:54:24.233Z,20.03
2018-11-29T11:59:27.252Z,17.13
2018-11-29T12:04:30.263Z,18.37
2018-11-29T12:09:33.260Z,19.57
2018-11-29T12:14:36.293Z,19.47
2018-11-29T12:19:39.373Z,19.60
2018-11-29T12:24:42.477Z,20.37
2018-11-29T12:29:45.498Z,16.67
2018-11-29T12:34:48.597Z,19.67
2018-11-29T12:39:51.649Z,20.10
2018-11-29T12:44:54.777Z,20.37
2018-11-29T12:49:57.905Z,19.23
2018-11-29T13:00:24.304Z,20.70
2018-11-29T13:05:27.954Z,20.20
2018-11-29T13:10:31.026Z,18.30
2018-11-29T13:15:34.435Z,19.60
2018-11-29T13:20:37.593Z,19.20
2018-11-29T13:25:40.668Z,14.50
2018-11-29T13:30:43.918Z,17.40
2018-11-29T13:35:47.089Z,17.23
2018-11-29T13:40:52.555Z,19.20
2018-11-29T13:46:00.276Z,19.73
2018-11-29T13:51:09.362Z,19.43
2018-11-29T13:56:13.885Z,19.53
2018-11-29T14:01:20.432Z,19.50
2018-11-29T14:06:24.860Z,19.07
2018-11-29T14:11:28.541Z,18.03
2018-11-29T14:16:31.716Z,15.27
2018-11-29T14:21:34.760Z,15.60
2018-11-29T14:26:37.834Z,17.90
2018-11-29T14:31:40.879Z,17.73
2018-11-29T14:36:47.604Z,16.70
2018-11-29T14:41:50.624Z,16.93
2018-11-29T14:46:53.675Z,18.00
2018-11-29T14:51:56.799Z,19.13
2018-11-29T14:56:59.835Z,18.17
2018-11-29T15:02:02.911Z,13.90
2018-11-29T15:07:06.596Z,14.77
2018-11-29T15:12:09.734Z,12.47
2018-11-29T15:17:12.825Z,13.67
2018-11-29T15:22:15.892Z,10.53
2018-11-29T15:27:18.932Z,14.13
2018-11-29T15:32:21.993Z,11.33
2018-11-29T15:37:25.037Z,10.63
2018-11-29T15:42:28.114Z,10.97
2018-11-29T15:47:31.190Z,10.33
2018-11-29T15:52:34.243Z,9.77
2018-11-29T15:57:37.282Z,9.67
2018-11-29T16:02:40.371Z,9.83
2018-11-29T16:07:43.465Z,9.90
2018-11-29T16:12:46.553Z,9.17
2018-11-29T16:17:50.481Z,9.70
2018-11-29T16:22:53.511Z,7.60
2018-11-29T16:27:56.546Z,9.20
2018-11-29T16:33:02.383Z,9.40
2018-11-29T16:38:06.107Z,9.33
2018-11-29T16:43:09.554Z,9.23
2018-11-29T16:48:12.802Z,7.07
2018-11-29T16:53:15.870Z,9.27
2018-11-29T16:58:20.912Z,10.30
2018-11-29T17:03:23.995Z,9.20
2018-11-29T17:08:27.763Z,9.57
2018-11-29T17:13:30.852Z,10.17
2018-11-29T17:18:33.916Z,9.23
2018-11-29T17:23:36.943Z,10.03
2018-11-29T17:28:40.029Z,10.37
2018-11-29T17:33:43.080Z,11.07
2018-11-29T17:38:46.180Z,10.63
2018-11-29T17:43:49.223Z,9.77
2018-11-29T17:48:52.253Z,10.67
2018-11-29T17:53:55.391Z,11.30
2018-11-29T17:58:58.446Z,12.17
2018-11-29T18:04:01.518Z,11.03
2018-11-29T18:09:09.017Z,12.63
2018-11-29T18:14:12.195Z,13.43
2018-11-29T18:19:15.288Z,12.30
2018-11-29T18:24:18.393Z,12.63
2018-11-29T18:29:21.512Z,10.87
2018-11-29T18:34:24.531Z,14.17
2018-11-29T18:39:27.619Z,12.40
2018-11-29T18:44:32.712Z,13.17
2018-11-29T18:49:35.779Z,14.40
2018-11-29T18:54:38.873Z,11.67
2018-11-29T18:59:46.108Z,14.30
2018-11-29T19:04:49.153Z,11.43
2018-11-29T19:09:52.267Z,11.23
2018-11-29T19:14:55.360Z,13.93
2018-11-29T19:19:59.460Z,11.57
2018-11-29T19:25:02.508Z,12.27
2018-11-29T19:30:10.548Z,9.73
2018-11-29T19:35:13.660Z,10.60
2018-11-29T19:40:17.155Z,12.47
2018-11-29T19:45:20.217Z,9.53
2018-11-29T19:50:23.256Z,11.47
2018-11-29T19:55:27.617Z,10.30
2018-11-29T20:00:30.652Z,9.27
2018-11-29T20:05:33.691Z,9.83
2018-11-29T20:10:36.778Z,10.27
2018-11-29T20:15:41.310Z,9.20
2018-11-29T20:20:49.600Z,7.97
2018-11-29T20:25:52.651Z,8.37
2018-11-29T20:30:55.759Z,9.73
2018-11-29T20:35:58.812Z,9.90
2018-11-29T20:41:01.838Z,9.13
2018-11-29T20:46:04.872Z,9.80
2018-11-29T20:51:07.908Z,10.07
2018-11-29T20:56:12.491Z,9.47
2018-11-29T21:01:15.519Z,10.47
2018-11-29T21:06:18.549Z,10.03
2018-11-29T21:11:21.601Z,9.30
2018-11-29T21:16:24.748Z,9.50
2018-11-29T21:21:27.789Z,9.37
2018-11-29T21:26:30.872Z,7.97
2018-11-29T21:31:33.893Z,8.83
2018-11-29T21:36:43.477Z,6.20
2018-11-29T21:41:46.536Z,8.20
2018-11-29T21:46:49.657Z,9.30
2018-11-29T21:51:52.713Z,8.57
2018-11-29T21:56:55.756Z,8.17
2018-11-29T22:01:58.804Z,7.63
2018-11-29T22:07:01.878Z,8.00
2018-11-29T22:12:04.935Z,7.20
2018-11-29T22:17:07.992Z,10.83
2018-11-29T22:22:11.015Z,8.90
2018-11-29T22:27:14.103Z,8.10
2018-11-29T22:32:17.163Z,7.87
2018-11-29T22:37:20.197Z,9.67
2018-11-29T22:42:23.233Z,8.43
2018-11-29T22:47:26.315Z,9.80
2018-11-29T22:52:29.356Z,8.77
2018-11-29T22:57:32.403Z,9.27
2018-11-29T23:02:35.553Z,10.57
2018-11-29T23:07:38.590Z,6.23
2018-11-29T23:12:41.703Z,10.33
2018-11-29T23:17:44.755Z,7.63
2018-11-29T23:22:47.798Z,9.17
2018-11-29T23:27:50.894Z,6.73
2018-11-29T23:32:53.935Z,8.50
2018-11-29T23:37:56.981Z,8.93
2018-11-29T23:43:00.032Z,7.33
2018-11-29T23:48:03.080Z,10.20
2018-11-29T23:53:06.154Z,9.63
2018-11-29T23:58:09.215Z,10.43
